createdAt,value
2018-11-12T00:00:36.687Z,100754.86
2018-11-12T00:03:40.546Z,100755.92
2018-11-12T00:06:44.427Z,100747.52
2018-11-12T00:09:48.300Z,100760.88
2018-11-12T00:12:52.369Z,100758.84
2018-11-12T00:15:56.578Z,100769.18
2018-11-12T00:19:00.452Z,100776.50
2018-11-12T00:22:04.771Z,100771.45
2018-11-12T00:25:08.917Z,100774.12
2018-11-12T00:28:12.778Z,100779.41
2018-11-12T00:31:16.850Z,100788.84
2018-11-12T00:34:20.712Z,100794.88
2018-11-12T00:37:24.591Z,100799.71
2018-11-12T00:40:28.657Z,100807.79
2018-11-12T00:43:32.516Z,100812.62
2018-11-12T00:46:36.392Z,100818.28
2018-11-12T00:49:40.353Z,100819.64
2018-11-12T00:52:44.228Z,100813.37
2018-11-12T00:55:48.111Z,100816.91
2018-11-12T00:58:52.181Z,100819.86
2018-11-12T01:01:56.070Z,100836.61
2018-11-12T01:05:00.133Z,100846.59
2018-11-12T01:08:04.021Z,100847.58
2018-11-12T01:11:07.903Z,100844.63
2018-11-12T01:14:11.754Z,100849.45
2018-11-12T01:17:15.627Z,100857.67
2018-11-12T01:20:19.484Z,100847.52
2018-11-12T01:23:23.570Z,100854.14
2018-11-12T01:26:27.614Z,100868.70
2018-11-12T01:29:31.522Z,100876.08
2018-11-12T01:32:35.392Z,100880.80
2018-11-12T01:35:39.454Z,100891.27
2018-11-12T01:38:43.305Z,100891.33
2018-11-12T01:41:47.198Z,100884.22
2018-11-12T01:44:51.230Z,100886.89
2018-11-12T01:47:55.085Z,100895.94
2018-11-12T01:50:58.937Z,100908.06
2018-11-12T01:54:02.809Z,100902.94
2018-11-12T01:57:06.693Z,100892.43
2018-11-12T02:00:20.062Z,100898.88
2018-11-12T02:03:23.928Z,100907.16
2018-11-12T02:06:27.794Z,100896.27
2018-11-12T02:09:31.865Z,100892.52
2018-11-12T02:12:35.970Z,100906.75
2018-11-12T02:15:40.372Z,100906.05
2018-11-12T02:18:44.229Z,100907.87
2018-11-12T02:21:48.412Z,100915.12
2018-11-12T02:24:52.274Z,100921.66
2018-11-12T02:27:56.152Z,100918.01
2018-11-12T02:31:00.028Z,100908.14
2018-11-12T02:34:04.155Z,100900.30
2018-11-12T02:37:08.022Z,100903.75
2018-11-12T02:40:12.933Z,100905.87
2018-11-12T02:43:17.109Z,100900.17
2018-11-12T02:46:21.686Z,100895.75
2018-11-12T02:49:25.877Z,100907.73
2018-11-12T02:52:29.716Z,100901.39
2018-11-12T02:55:33.568Z,100900.48
2018-11-12T02:58:37.446Z,100905.39
2018-11-12T03:01:41.305Z,100895.59
2018-11-12T03:04:45.161Z,100893.03
2018-11-12T03:07:49.020Z,100896.94
2018-11-12T03:10:52.879Z,100903.85
2018-11-12T03:13:56.734Z,100900.07
2018-11-12T03:17:00.590Z,100897.00
2018-11-12T03:20:05.029Z,100893.73
2018-11-12T03:23:08.885Z,100904.08
2018-11-12T03:26:12.791Z,100895.91
2018-11-12T03:29:16.865Z,100892.33
2018-11-12T03:32:20.925Z,100912.44
2018-11-12T03:35:25.137Z,100926.97
2018-11-12T03:38:29.538Z,100927.87
2018-11-12T03:41:33.644Z,100919.00
2018-11-12T03:44:37.517Z,100928.80
2018-11-12T03:47:41.725Z,100945.36
2018-11-12T03:50:45.941Z,100942.47
2018-11-12T03:53:50.045Z,100948.43
2018-11-12T03:56:53.913Z,100947.53
2018-11-12T03:59:57.803Z,100949.59
2018-11-12T04:03:02.165Z,100944.91
2018-11-12T04:06:06.042Z,100949.20
2018-11-12T04:09:11.420Z,100940.62
2018-11-12T04:12:15.473Z,100942.28
2018-11-12T04:15:21.800Z,100935.37
2018-11-12T04:18:25.861Z,100943.05
2018-11-12T04:21:29.921Z,100948.23
2018-11-12T04:24:33.784Z,100936.71
2018-11-12T04:27:38.016Z,100949.39
2018-11-12T04:30:41.883Z,100952.86
2018-11-12T04:33:45.737Z,100956.19
2018-11-12T04:36:49.594Z,100948.95
2018-11-12T04:39:53.464Z,100957.02
2018-11-12T04:42:57.660Z,100957.47
2018-11-12T04:46:01.537Z,100955.27
2018-11-12T04:49:05.812Z,100947.83
2018-11-12T04:52:09.739Z,100943.98
2018-11-12T04:55:15.157Z,100940.91
2018-11-12T04:58:19.161Z,100941.97
2018-11-12T05:01:23.117Z,100952.99
2018-11-12T05:04:26.962Z,100961.45
2018-11-12T05:07:31.198Z,100957.54
2018-11-12T05:10:35.217Z,100941.78
2018-11-12T05:13:39.124Z,100964.69
2018-11-12T05:16:43.228Z,100979.55
2018-11-12T05:19:47.200Z,100990.58
2018-11-12T05:22:51.074Z,100995.70
2018-11-12T05:25:55.262Z,101009.68
2018-11-12T05:28:59.473Z,101027.17
2018-11-12T05:32:03.678Z,101015.12
2018-11-12T05:35:07.537Z,101003.14
2018-11-12T05:38:11.406Z,101018.52
2018-11-12T05:41:15.442Z,101015.12
2018-11-12T05:44:19.288Z,101016.80
2018-11-12T05:47:23.153Z,101029.13
2018-11-12T05:50:28.700Z,101027.40
2018-11-12T05:53:32.562Z,101031.57
2018-11-12T05:56:36.414Z,101008.43
2018-11-12T05:59:40.264Z,101009.58
2018-11-12T06:02:44.127Z,101007.82
2018-11-12T06:05:48.508Z,100995.00
2018-11-12T06:08:52.372Z,101000.95
2018-11-12T06:11:56.222Z,101006.41
2018-11-12T06:15:00.626Z,101012.30
2018-11-12T06:18:04.790Z,101022.56
2018-11-12T06:21:08.805Z,101026.80
2018-11-12T06:24:12.865Z,101025.45
2018-11-12T06:27:16.728Z,101029.30
2018-11-12T06:30:23.257Z,101030.96
2018-11-12T06:33:27.109Z,101039.88
2018-11-12T06:36:31.331Z,101033.87
2018-11-12T06:39:35.362Z,101027.85
2018-11-12T06:42:39.677Z,101023.55
2018-11-12T06:45:43.603Z,101026.12
2018-11-12T06:48:47.662Z,101023.11
2018-11-12T06:51:51.530Z,101017.53
2018-11-12T06:54:55.387Z,101020.03
2018-11-12T06:57:59.244Z,101025.54
2018-11-12T07:01:03.220Z,101015.28
2018-11-12T07:04:07.507Z,101015.66
2018-11-12T07:07:11.346Z,101014.77
2018-11-12T07:10:18.627Z,101017.71
2018-11-12T07:13:22.516Z,101011.69
2018-11-12T07:16:26.542Z,101012.13
2018-11-12T07:19:30.394Z,101008.67
2018-11-12T07:22:34.241Z,101012.07
2018-11-12T07:25:38.437Z,101009.02
2018-11-12T07:28:42.508Z,101008.64
2018-11-12T07:31:46.368Z,101007.73
2018-11-12T07:34:50.737Z,101014.53
2018-11-12T07:37:55.375Z,101004.66
2018-11-12T07:40:59.229Z,101001.26
2018-11-12T07:44:03.088Z,101005.88
2018-11-12T07:47:07.622Z,101004.14
2018-11-12T07:50:14.189Z,101010.11
2018-11-12T07:53:18.369Z,101007.09
2018-11-12T07:56:22.557Z,101005.30
2018-11-12T07:59:26.821Z,100998.88
2018-11-12T08:02:31.178Z,100999.27
2018-11-12T08:05:35.560Z,100990.25
2018-11-12T08:08:39.607Z,100991.46
2018-11-12T08:11:43.503Z,100984.22
2018-11-12T08:14:47.580Z,100982.86
2018-11-12T08:17:51.597Z,100981.97
2018-11-12T08:20:55.459Z,100982.73
2018-11-12T08:23:59.614Z,100981.90
2018-11-12T08:27:03.613Z,100983.95
2018-11-12T08:30:09.639Z,100981.31
2018-11-12T08:33:13.725Z,100979.13
2018-11-12T08:36:17.770Z,100976.94
2018-11-12T08:39:21.888Z,100978.64
2018-11-12T08:42:25.858Z,100987.11
2018-11-12T08:45:29.713Z,100981.07
2018-11-12T08:48:33.639Z,100981.45
2018-11-12T08:51:37.630Z,100981.84
2018-11-12T08:54:41.976Z,100981.39
2018-11-12T08:57:47.425Z,100986.45
2018-11-12T09:00:51.590Z,100988.95
2018-11-12T09:03:55.991Z,100989.74
2018-11-12T09:07:00.020Z,100995.26
2018-11-12T09:10:04.326Z,101004.66
2018-11-12T09:13:08.380Z,101000.73
2018-11-12T09:16:12.237Z,101006.25
2018-11-12T09:19:16.240Z,101007.02
2018-11-12T09:22:20.093Z,101009.97
2018-11-12T09:25:25.462Z,101010.73
2018-11-12T09:28:29.648Z,101016.70
2018-11-12T09:31:34.108Z,101017.98
2018-11-12T09:34:37.906Z,101023.91
2018-11-12T09:37:42.491Z,101027.70
2018-11-12T09:40:46.889Z,101027.63
2018-11-12T09:43:51.070Z,101019.02
2018-11-12T09:46:55.055Z,101009.59
2018-11-12T09:49:58.912Z,101001.81
2018-11-12T09:53:03.282Z,100982.48
2018-11-12T09:56:07.498Z,100981.59
2018-11-12T09:59:11.565Z,100995.60
2018-11-12T10:02:16.343Z,100999.00
2018-11-12T10:05:21.326Z,100999.38
2018-11-12T10:08:26.012Z,100992.89
2018-11-12T10:11:31.776Z,100993.66
2018-11-12T10:14:34.878Z,101003.03
2018-11-12T10:17:40.382Z,101008.47
2018-11-12T10:20:40.738Z,101003.75
2018-11-12T10:23:44.598Z,100997.33
2018-11-12T10:26:48.660Z,100999.83
2018-11-12T10:29:52.521Z,100991.22
2018-11-12T10:32:56.625Z,100987.75
2018-11-12T10:36:00.484Z,100980.42
2018-11-12T10:39:05.155Z,100980.80
2018-11-12T10:42:09.226Z,100979.91
2018-11-12T10:45:13.521Z,100993.95
2018-11-12T10:48:17.441Z,100988.37
2018-11-12T10:51:21.514Z,100980.17
2018-11-12T10:54:25.636Z,100977.16
2018-11-12T10:57:29.980Z,100960.84
2018-11-12T11:00:39.701Z,100947.92
2018-11-12T11:03:50.271Z,100941.50
2018-11-12T11:06:54.324Z,100941.50
2018-11-12T11:09:58.612Z,100943.17
2018-11-12T11:13:03.893Z,100940.14
2018-11-12T11:16:07.745Z,100936.22
2018-11-12T11:19:11.614Z,100931.46
2018-11-12T11:22:15.506Z,100934.03
2018-11-12T11:25:19.725Z,100927.16
2018-11-12T11:28:23.581Z,100919.83
2018-11-12T11:31:27.443Z,100911.22
2018-11-12T11:34:31.305Z,100912.58
2018-11-12T11:37:35.166Z,100911.17
2018-11-12T11:40:39.064Z,100894.07
2018-11-12T11:43:43.414Z,100883.80
2018-11-12T11:46:47.271Z,100871.78
2018-11-12T11:49:51.333Z,100866.22
2018-11-12T11:52:55.413Z,100849.91
2018-11-12T11:56:01.121Z,100869.17
2018-11-12T11:59:04.993Z,100869.17
2018-11-12T12:02:08.921Z,100864.87
2018-11-12T12:05:14.247Z,100859.27
2018-11-12T12:08:18.652Z,100863.13
2018-11-12T12:11:22.505Z,100854.52
2018-11-12T12:14:26.368Z,100850.66
2018-11-12T12:17:30.268Z,100855.34
2018-11-12T12:20:34.317Z,100850.20
2018-11-12T12:23:38.537Z,100844.16
2018-11-12T12:26:42.389Z,100830.03
2018-11-12T12:29:46.270Z,100820.21
2018-11-12T12:32:51.000Z,100812.05
2018-11-12T12:35:55.666Z,100818.47
2018-11-12T12:38:59.702Z,100807.75
2018-11-12T12:42:03.557Z,100795.27
2018-11-12T12:45:08.654Z,100785.00
2018-11-12T12:48:12.648Z,100778.12
2018-11-12T12:51:16.889Z,100771.63
2018-11-12T12:54:21.259Z,100765.66
2018-11-12T12:57:25.323Z,100764.30
2018-11-12T13:00:29.517Z,100771.55
2018-11-12T13:03:33.704Z,100771.50
2018-11-12T13:06:37.625Z,100779.13
2018-11-12T13:09:41.624Z,100777.39
2018-11-12T13:12:45.486Z,100783.28
2018-11-12T13:15:49.520Z,100759.70
2018-11-12T13:18:53.709Z,100757.97
2018-11-12T13:21:57.748Z,100755.77
2018-11-12T13:25:01.612Z,100762.03
2018-11-12T13:28:05.869Z,100764.61
2018-11-12T13:31:09.724Z,100763.27
2018-11-12T13:34:13.926Z,100761.91
2018-11-12T13:37:17.974Z,100762.28
2018-11-12T13:40:23.312Z,100763.12
2018-11-12T13:43:27.170Z,100754.95
2018-11-12T13:46:36.893Z,100756.23
2018-11-12T13:49:40.880Z,100749.81
2018-11-12T13:52:45.393Z,100758.73
2018-11-12T13:55:49.590Z,100757.45
2018-11-12T13:58:53.453Z,100758.27
2018-11-12T14:01:57.313Z,100752.68
2018-11-12T14:05:01.189Z,100750.11
2018-11-12T14:08:05.469Z,100745.34
2018-11-12T14:11:09.332Z,100754.26
2018-11-12T14:14:13.202Z,100745.72
2018-11-12T14:17:17.260Z,100750.78
2018-11-12T14:20:22.246Z,100742.70
2018-11-12T14:23:26.217Z,100747.38
2018-11-12T14:26:30.097Z,100746.92
2018-11-12T14:29:33.953Z,100749.50
2018-11-12T14:32:38.062Z,100750.73
2018-11-12T14:35:42.205Z,100747.76
2018-11-12T14:38:46.192Z,100750.73
2018-11-12T14:41:50.059Z,100752.84
2018-11-12T14:44:53.931Z,100750.28
2018-11-12T14:47:57.795Z,100754.12
2018-11-12T14:51:01.927Z,100754.05
2018-11-12T14:54:06.185Z,100750.20
2018-11-12T14:57:10.274Z,100757.00
2018-11-12T15:00:18.356Z,100757.00
2018-11-12T15:03:22.417Z,100754.43
2018-11-12T15:06:26.621Z,100759.11
2018-11-12T15:09:30.811Z,100759.11
2018-11-12T15:12:34.669Z,100758.20
2018-11-12T15:15:38.873Z,100752.23
2018-11-12T15:18:42.736Z,100747.92
2018-11-12T15:21:46.617Z,100747.55
2018-11-12T15:24:50.489Z,100747.47
2018-11-12T15:27:54.337Z,100749.58
2018-11-12T15:30:58.215Z,100751.78
2018-11-12T15:34:02.291Z,100742.70
2018-11-12T15:37:06.811Z,100744.81
2018-11-12T15:40:11.566Z,100740.96
2018-11-12T15:43:15.468Z,100747.39
2018-11-12T15:46:19.470Z,100733.70
2018-11-12T15:49:23.328Z,100743.91
2018-11-12T15:52:27.557Z,100752.07
2018-11-12T15:55:31.424Z,100746.48
2018-11-12T15:58:35.287Z,100743.53
2018-11-12T16:01:39.487Z,100740.96
2018-11-12T16:04:43.670Z,100742.25
2018-11-12T16:07:47.528Z,100738.39
2018-11-12T16:10:51.721Z,100746.55
2018-11-12T16:13:55.578Z,100742.25
2018-11-12T16:16:59.433Z,100746.10
2018-11-12T16:20:03.972Z,100756.30
2018-11-12T16:23:07.828Z,100749.50
2018-11-12T16:26:11.702Z,100751.23
2018-11-12T16:29:15.582Z,100761.52
2018-11-12T16:32:19.441Z,100770.89
2018-11-12T16:35:24.443Z,100765.38
2018-11-12T16:38:28.318Z,100771.34
2018-11-12T16:41:32.185Z,100764.47
2018-11-12T16:44:36.410Z,100763.19
2018-11-12T16:47:40.278Z,100767.50
2018-11-12T16:50:44.686Z,100775.66
2018-11-12T16:53:48.552Z,100790.63
2018-11-12T16:56:52.445Z,100811.56
2018-11-12T16:59:56.677Z,100816.78
2018-11-12T17:03:00.546Z,100820.64
2018-11-12T17:06:04.630Z,100824.42
2018-11-12T17:09:11.126Z,100818.07
2018-11-12T17:12:15.037Z,100817.16
2018-11-12T17:15:19.220Z,100821.02
2018-11-12T17:18:23.393Z,100826.61
2018-11-12T17:21:27.262Z,100832.58
2018-11-12T17:24:31.715Z,100835.98
2018-11-12T17:27:35.591Z,100854.44
2018-11-12T17:30:40.050Z,100849.74
2018-11-12T17:33:44.401Z,100860.86
2018-11-12T17:36:48.273Z,100868.11
2018-11-12T17:39:52.481Z,100870.31
2018-11-12T17:42:56.858Z,100872.42
2018-11-12T17:46:01.257Z,100891.17
2018-11-12T17:49:05.588Z,100893.36
2018-11-12T17:52:09.677Z,100896.31
2018-11-12T17:55:13.937Z,100901.83
2018-11-12T17:58:17.817Z,100900.12
2018-11-12T18:01:22.042Z,100912.98
2018-11-12T18:04:26.090Z,100935.66
2018-11-12T18:07:30.019Z,100933.97
2018-11-12T18:10:34.021Z,100933.54
2018-11-12T18:13:37.948Z,100953.24
2018-11-12T18:16:42.042Z,100956.67
2018-11-12T18:19:45.918Z,100964.81
2018-11-12T18:22:51.121Z,100957.96
2018-11-12T18:25:55.519Z,100980.64
2018-11-12T18:28:59.717Z,100984.50
2018-11-12T18:32:03.937Z,100995.66
2018-11-12T18:35:08.702Z,100987.56
2018-11-12T18:38:12.983Z,101001.70
2018-11-12T18:41:16.981Z,101005.56
2018-11-12T18:44:21.368Z,101018.03
2018-11-12T18:47:25.229Z,101010.39
2018-11-12T18:50:30.309Z,101004.05
2018-11-12T18:53:34.377Z,101001.09
2018-11-12T18:56:38.284Z,100995.50
2018-11-12T18:59:42.345Z,101006.61
2018-11-12T19:02:46.787Z,101016.14
2018-11-12T19:05:50.676Z,101015.30
2018-11-12T19:08:54.888Z,101006.77
2018-11-12T19:11:58.765Z,101029.14
2018-11-12T19:15:02.632Z,101035.56
2018-11-12T19:18:08.568Z,101039.45
2018-11-12T19:21:12.454Z,101030.09
2018-11-12T19:24:16.521Z,101047.24
2018-11-12T19:27:20.799Z,101064.85
2018-11-12T19:30:26.293Z,101061.91
2018-11-12T19:33:30.170Z,101069.23
2018-11-12T19:36:34.344Z,101076.56
2018-11-12T19:39:38.757Z,101095.84
2018-11-12T19:42:43.748Z,101105.28
2018-11-12T19:45:47.611Z,101098.86
2018-11-12T19:48:51.489Z,101091.22
2018-11-12T19:51:55.725Z,101084.91
2018-11-12T19:54:59.758Z,101095.59
2018-11-12T19:58:03.629Z,101117.48
2018-11-12T20:01:07.504Z,101123.52
2018-11-12T20:04:11.373Z,101132.06
2018-11-12T20:07:15.445Z,101126.55
2018-11-12T20:10:20.824Z,101132.58
2018-11-12T20:13:24.876Z,101134.77
2018-11-12T20:16:28.749Z,101138.63
2018-11-12T20:19:32.621Z,101133.11
2018-11-12T20:22:36.505Z,101137.03
2018-11-12T20:25:40.368Z,101136.20
2018-11-12T20:28:44.236Z,101142.31
2018-11-12T20:31:48.446Z,101143.52
2018-11-12T20:34:52.516Z,101139.73
2018-11-12T20:37:56.926Z,101145.75
2018-11-12T20:41:00.995Z,101156.47
2018-11-12T20:44:05.317Z,101148.39
2018-11-12T20:47:09.384Z,101168.55
2018-11-12T20:50:14.258Z,101173.77
2018-11-12T20:53:18.454Z,101157.52
2018-11-12T20:56:22.321Z,101141.34
2018-11-12T20:59:26.821Z,101152.89
2018-11-12T21:02:30.738Z,101171.27
2018-11-12T21:05:34.757Z,101193.55
2018-11-12T21:08:38.616Z,101200.49
2018-11-12T21:11:42.820Z,101189.38
2018-11-12T21:14:46.694Z,101192.78
2018-11-12T21:17:50.811Z,101196.70
2018-11-12T21:20:54.998Z,101195.04
2018-11-12T21:23:59.084Z,101188.20
2018-11-12T21:27:03.142Z,101203.67
2018-11-12T21:30:10.241Z,101213.12
2018-11-12T21:33:14.110Z,101191.28
2018-11-12T21:36:17.970Z,101180.24
2018-11-12T21:39:22.044Z,101178.12
2018-11-12T21:42:25.906Z,101178.58
2018-11-12T21:45:30.621Z,101179.64
2018-11-12T21:48:34.513Z,101179.33
2018-11-12T21:51:38.383Z,101194.80
2018-11-12T21:54:42.453Z,101204.83
2018-11-12T21:57:46.693Z,101203.54
2018-11-12T22:00:51.149Z,101201.94
2018-11-12T22:03:55.014Z,101196.97
2018-11-12T22:06:59.097Z,101206.78
2018-11-12T22:10:02.974Z,101217.70
2018-11-12T22:13:06.840Z,101232.34
2018-11-12T22:16:11.054Z,101234.10
2018-11-12T22:19:15.031Z,101231.44
2018-11-12T22:22:19.333Z,101242.99
2018-11-12T22:25:23.829Z,101237.47
2018-11-12T22:28:28.010Z,101253.27
2018-11-12T22:31:31.878Z,101254.16
2018-11-12T22:34:35.936Z,101243.37
2018-11-12T22:37:39.967Z,101235.32
2018-11-12T22:40:43.921Z,101239.23
2018-11-12T22:43:47.776Z,101243.47
2018-11-12T22:46:51.978Z,101241.71
2018-11-12T22:49:55.846Z,101244.38
2018-11-12T22:52:59.897Z,101233.33
2018-11-12T22:56:03.758Z,101247.84
2018-11-12T22:59:07.981Z,101253.42
2018-11-12T23:02:12.190Z,101249.63
2018-11-12T23:05:16.441Z,101249.25
2018-11-12T23:08:20.308Z,101245.91
2018-11-12T23:11:24.193Z,101249.38
2018-11-12T23:14:28.390Z,101254.95
2018-11-12T23:17:32.236Z,101254.89
2018-11-12T23:20:36.620Z,101256.27
2018-11-12T23:23:40.478Z,101257.14
2018-11-12T23:26:44.640Z,101263.59
2018-11-12T23:29:48.496Z,101278.09
2018-11-12T23:32:52.697Z,101279.80
2018-11-12T23:35:56.562Z,101283.13
2018-11-12T23:39:00.420Z,101288.33
2018-11-12T23:42:04.329Z,101292.72
2018-11-12T23:45:08.294Z,101292.84
2018-11-12T23:48:12.153Z,101305.30
2018-11-12T23:51:16.348Z,101302.78
2018-11-12T23:54:20.184Z,101298.94
2018-11-12T23:57:24.102Z,101289.15
